< < Back
Terminal Aerodrome Forecast


Current Version              Previous Versions:   1  2  3  4  5  6  7  8  9  

Terminal Aerodrome Forecast

477
FTUS42 KFFC 291723
TAFMCN
TAF
KMCN 291723Z 2918/3018 19009KT P6SM BKN200
     FM292200 21009KT P6SM SCT120
     FM300300 21007KT P6SM BKN080
     FM300500 26009KT P6SM BKN025 PROB30 3006/3010 -RA BKN012
     FM301600 32012G23KT P6SM SCT045=



Latest METAR

822
SAUS80 KWBC 301800 RRB
MTRMCN
METAR KMCN 301753Z 32011G17KT 10SM CLR 12/M03 A3026 RMK AO2 SLP247
T01221028 10122 20044 58007 $


USA.gov is the U.S. government's official web portal to all federal, state and local government web resources and services.